Dempster, South Dakota
Current Conditions -  °F | °C
As of 5:53 PM on Saturday 22 Nov 2014 (Local Time) from KATY Reporting Station
Haze Haze  
Wind Chill: 24°   Ceiling: Unl
Heat Index: 34°   Visibility: 5mi
Dew Point: 32°   Wind: 15mph
Humidity: 92%   Direction: 170°S
Pressure: 29.42"   Gusts: NA
Location:  44.6241°N, 96.9581°W
Report Text: KATY 222353Z AUTO 17013KT 5SM BR CLR 01/00 A2942 RMK AO2 SLP980 T00110000 10017 21006 56012
Loading
Personal Weather Stations






























Interactive Weather Map New forecast layout! Learn more

10-Day Weather Forecast

Advertisements
Track Severe Weather on mobile